Time;durP1;ratioP1;P1;durP2;ratioP2;P2;SDS_P1;SDS_P2;PMS_P1;PMS_P2;Temp;Humidity;BMP_temperature;BMP_pressure;BME280_temperature;BME280_humidity;BME280_pressure;Samples;Min_cycle;Max_cycle;Signal;HPM_P1;HPM_P2
2024/04/08 00:00:51;;;;;;;1.87;1.77;;;;;;;10.83;68.39;97085.31;5102466;28;20227;-80
2024/04/08 00:03:18;;;;;;;1.70;1.50;;;;;;;10.75;69.10;97084.03;5104430;28;20253;-79
2024/04/08 00:05:43;;;;;;;2.07;1.73;;;;;;;10.54;69.08;97067.38;5091292;28;20202;-80
2024/04/08 00:08:11;;;;;;;1.77;1.67;;;;;;;10.67;70.37;97076.63;5095167;28;20195;-80
2024/04/08 00:10:37;;;;;;;2.30;1.60;;;;;;;10.76;69.41;97072.28;5111011;28;20669;-79
2024/04/08 00:13:04;;;;;;;2.63;1.60;;;;;;;10.59;69.24;97070.00;5092140;28;20200;-80
2024/04/08 00:15:31;;;;;;;5.03;2.20;;;;;;;10.37;70.05;97058.91;5090864;28;20196;-80
2024/04/08 00:17:57;;;;;;;2.77;2.07;;;;;;;10.27;70.26;97071.19;5091225;28;20208;-80
2024/04/08 00:20:23;;;;;;;1.90;1.80;;;;;;;10.45;69.51;97069.81;5106715;28;20220;-80
2024/04/08 00:22:52;;;;;;;2.00;1.43;;;;;;;10.25;69.45;97040.59;5099187;28;20255;-80
2024/04/08 00:25:18;;;;;;;2.07;1.87;;;;;;;10.43;69.53;97065.81;5090508;28;20621;-81
2024/04/08 00:27:45;;;;;;;1.73;1.63;;;;;;;10.29;70.76;97069.03;5107687;28;20311;-80
2024/04/08 00:30:11;;;;;;;1.83;1.60;;;;;;;10.34;70.29;97070.91;5094552;28;20204;-80
2024/04/08 00:32:39;;;;;;;2.33;2.13;;;;;;;10.53;68.79;97071.91;5113405;28;20286;-80
2024/04/08 00:35:06;;;;;;;1.60;1.50;;;;;;;10.44;68.98;97072.72;5101020;28;20606;-80
2024/04/08 00:37:33;;;;;;;3.10;1.73;;;;;;;10.45;69.87;97069.81;5101570;28;20278;-80
2024/04/08 00:39:58;;;;;;;2.27;1.87;;;;;;;10.46;69.88;97065.28;5103431;28;20580;-80
2024/04/08 00:42:25;;;;;;;1.87;1.60;;;;;;;10.17;70.36;97068.53;5094024;28;20196;-80
2024/04/08 00:44:51;;;;;;;1.80;1.70;;;;;;;10.39;69.85;97064.78;5094088;28;20200;-80
2024/04/08 00:47:18;;;;;;;4.70;2.20;;;;;;;10.58;68.71;97059.63;5110067;28;20562;-80
2024/04/08 00:49:46;;;;;;;2.30;2.10;;;;;;;10.22;69.41;97031.28;5101140;28;20202;-80
2024/04/08 00:52:14;;;;;;;1.70;1.60;;;;;;;10.30;69.88;97059.22;5095223;28;20185;-80
2024/04/08 00:54:40;;;;;;;2.17;1.80;;;;;;;10.33;70.05;97061.31;5108146;28;20281;-80
2024/04/08 00:57:09;;;;;;;2.50;2.00;;;;;;;10.19;70.54;97054.97;5106218;28;20202;-79
2024/04/08 00:59:35;;;;;;;1.80;1.70;;;;;;;9.96;71.72;97065.16;5093914;28;20212;-80
2024/04/08 01:02:04;;;;;;;4.83;1.83;;;;;;;9.93;71.87;97044.41;5099125;28;20254;-80
2024/04/08 01:04:31;;;;;;;2.90;2.00;;;;;;;9.88;71.63;97064.91;5103511;28;20239;-80
2024/04/08 01:06:59;;;;;;;4.50;1.70;;;;;;;10.01;71.42;97064.31;5114442;28;20192;-80
2024/04/08 01:09:25;;;;;;;1.70;1.60;;;;;;;9.99;71.43;97058.50;5097765;28;20196;-80
2024/04/08 01:11:53;;;;;;;2.03;1.80;;;;;;;9.77;70.85;97006.44;5100323;28;20292;-80
2024/04/08 01:14:18;;;;;;;2.23;1.67;;;;;;;10.24;70.23;97053.09;5108534;28;20193;-80
2024/04/08 01:16:45;;;;;;;1.60;1.50;;;;;;;10.00;71.27;97047.59;5093133;28;20196;-81
2024/04/08 01:19:16;;;;;;;1.63;1.53;;;;;;;10.18;70.95;97056.84;5093693;28;20216;-80
2024/04/08 01:21:45;;;;;;;3.57;1.90;;;;;;;10.24;71.02;97057.59;5094475;28;20196;-80
2024/04/08 01:24:13;;;;;;;1.93;1.73;;;;;;;10.21;70.48;97058.16;5094622;28;20196;-80
2024/04/08 01:26:40;;;;;;;1.70;1.60;;;;;;;10.26;70.20;97061.63;5114047;28;20278;-80
2024/04/08 01:29:06;;;;;;;2.80;1.60;;;;;;;10.15;70.78;97045.94;5106103;28;20192;-81
2024/04/08 01:31:33;;;;;;;2.93;1.60;;;;;;;10.21;70.21;97058.16;5098472;28;20199;-80
2024/04/08 01:33:59;;;;;;;2.87;1.70;;;;;;;10.19;70.22;97057.63;5098813;28;20231;-80
2024/04/08 01:36:25;;;;;;;1.70;1.60;;;;;;;9.92;70.37;97029.53;5106140;28;20238;-81
2024/04/08 01:38:51;;;;;;;1.50;1.40;;;;;;;10.10;70.87;97059.25;5093415;28;20231;-80
2024/04/08 01:41:19;;;;;;;2.43;1.60;;;;;;;10.18;70.13;97059.50;5100616;28;20194;-81
2024/04/08 01:43:45;;;;;;;1.50;1.40;;;;;;;9.87;71.31;97058.75;5109933;28;20689;-81
2024/04/08 01:46:12;;;;;;;1.73;1.63;;;;;;;9.74;71.62;97062.78;5093294;28;20204;-80
2024/04/08 01:48:38;;;;;;;1.63;1.53;;;;;;;9.84;71.80;97064.66;5093164;28;20265;-81
2024/04/08 01:51:05;;;;;;;1.83;1.73;;;;;;;9.90;71.81;97062.75;5092754;28;20614;-81
2024/04/08 01:53:31;;;;;;;1.70;1.60;;;;;;;10.01;71.05;97067.78;5093533;28;20236;-81
2024/04/08 01:55:58;;;;;;;1.83;1.67;;;;;;;10.05;71.12;97068.03;5105446;28;20572;-81
2024/04/08 01:58:25;;;;;;;1.87;1.60;;;;;;;10.10;70.79;97067.22;5100698;28;20216;-81
2024/04/08 02:00:52;;;;;;;1.60;1.50;;;;;;;10.01;70.84;97065.13;5105299;28;20697;-81
2024/04/08 02:03:18;;;;;;;1.53;1.40;;;;;;;9.92;70.60;97072.06;5112526;28;20551;-81
2024/04/08 02:05:46;;;;;;;1.53;1.43;;;;;;;9.67;71.69;97062.25;5108787;28;20215;-81
2024/04/08 02:08:12;;;;;;;1.70;1.60;;;;;;;9.67;71.41;97062.25;5092593;28;20288;-80
2024/04/08 02:10:38;;;;;;;1.57;1.47;;;;;;;9.69;72.16;97062.81;5103699;28;20632;-81
2024/04/08 02:13:04;;;;;;;1.50;1.40;;;;;;;9.93;71.68;97065.69;5102502;28;20676;-80
2024/04/08 02:15:33;;;;;;;1.60;1.50;;;;;;;9.90;71.48;97068.88;5104257;28;20200;-80
2024/04/08 02:17:59;;;;;;;1.63;1.47;;;;;;;10.00;71.10;97073.38;5094134;28;20727;-80
2024/04/08 02:20:26;;;;;;;1.67;1.57;;;;;;;9.89;71.15;97066.50;5113076;28;20199;-79
2024/04/08 02:22:52;;;;;;;2.27;1.57;;;;;;;9.60;72.06;97072.38;5111612;28;20195;-80
2024/04/08 02:25:19;;;;;;;1.87;1.63;;;;;;;9.73;71.87;97073.69;5092218;28;20208;-80
2024/04/08 02:27:46;;;;;;;3.03;1.50;;;;;;;9.74;71.72;97070.75;5092482;28;20208;-80
2024/04/08 02:30:12;;;;;;;1.60;1.50;;;;;;;9.73;71.85;97071.03;5101084;28;20574;-80
2024/04/08 02:32:40;;;;;;;2.73;1.83;;;;;;;9.59;72.20;97070.78;5096164;28;20192;-80
2024/04/08 02:35:06;;;;;;;1.33;1.23;;;;;;;9.52;72.60;97075.56;5099659;28;20198;-80
2024/04/08 02:37:33;;;;;;;2.67;1.37;;;;;;;9.66;72.45;97081.16;5097672;28;20663;-80
2024/04/08 02:39:59;;;;;;;1.80;1.70;;;;;;;9.70;72.10;97085.66;5097449;28;20219;-80
2024/04/08 02:42:25;;;;;;;2.10;1.60;;;;;;;9.73;71.82;97081.69;5100518;28;20593;-80
2024/04/08 02:44:51;;;;;;;2.73;2.00;;;;;;;9.59;72.00;97060.16;5094747;28;20214;-80
2024/04/08 02:47:18;;;;;;;1.73;1.53;;;;;;;9.70;71.60;97072.38;5112742;28;20196;-80
2024/04/08 02:49:45;;;;;;;2.43;1.97;;;;;;;9.65;73.23;97074.25;5111706;28;20192;-80
2024/04/08 02:52:12;;;;;;;4.83;2.00;;;;;;;9.59;74.42;97078.75;5099446;28;20202;-80
2024/04/08 02:54:38;;;;;;;1.73;1.63;;;;;;;9.71;73.13;97076.59;5091991;28;20189;-80
2024/04/08 02:57:05;;;;;;;2.10;1.90;;;;;;;9.88;71.69;97083.53;5108315;28;20676;-80
2024/04/08 02:59:30;;;;;;;2.27;2.07;;;;;;;9.87;71.74;97085.34;5104175;28;20223;-80
2024/04/08 03:01:57;;;;;;;2.00;1.90;;;;;;;9.68;72.21;97094.94;5095415;28;20199;-80
2024/04/08 03:04:23;;;;;;;1.80;1.70;;;;;;;9.72;72.01;97086.19;5101902;28;20226;-80
2024/04/08 03:06:51;;;;;;;2.10;1.90;;;;;;;9.65;72.17;97088.31;5091420;28;20206;-80
2024/04/08 03:09:17;;;;;;;2.10;1.90;;;;;;;9.58;72.70;97094.97;5092023;28;20547;-81
2024/04/08 03:11:44;;;;;;;2.83;2.00;;;;;;;9.63;71.39;97101.06;5091487;28;20678;-80
2024/04/08 03:14:11;;;;;;;1.93;1.77;;;;;;;9.57;71.79;97096.03;5091420;28;20192;-80
2024/04/08 03:16:37;;;;;;;4.97;2.00;;;;;;;9.65;70.87;97100.81;5091502;28;20205;-80
2024/04/08 03:19:03;;;;;;;9.40;8.50;;;;;;;9.60;70.55;97104.25;5091935;28;20702;-80
2024/04/08 03:21:30;;;;;;;6.40;5.77;;;;;;;9.43;70.30;97101.09;5090728;28;20210;-80
2024/04/08 03:23:57;;;;;;;5.27;4.80;;;;;;;9.16;71.68;97117.25;5090987;28;20204;-80
2024/04/08 03:26:25;;;;;;;5.87;3.10;;;;;;;9.05;72.79;97111.13;5091959;28;20203;-80
2024/04/08 03:28:51;;;;;;;2.57;2.30;;;;;;;9.07;73.06;97109.81;5092311;28;20257;-80
2024/04/08 03:31:18;;;;;;;5.27;2.20;;;;;;;9.07;72.96;97107.16;5091798;28;20197;-80
2024/04/08 03:33:44;;;;;;;2.87;2.23;;;;;;;9.17;72.60;97113.53;5097521;28;20202;-81
2024/04/08 03:36:14;;;;;;;2.10;2.00;;;;;;;9.06;71.56;97113.53;5102187;28;20200;-80
2024/04/08 03:38:41;;;;;;;2.53;2.33;;;;;;;9.14;71.10;97117.53;5090949;28;20223;-80
2024/04/08 03:41:09;;;;;;;6.13;4.97;;;;;;;9.14;70.24;97124.69;5099614;28;20193;-80
2024/04/08 03:43:36;;;;;;;5.93;3.73;;;;;;;9.03;71.75;97116.72;5102308;28;20195;-80
2024/04/08 03:46:03;;;;;;;6.77;4.83;;;;;;;9.14;71.60;97119.38;5092173;28;20200;-80
2024/04/08 03:48:30;;;;;;;7.90;6.47;;;;;;;9.11;71.99;97119.91;5090907;28;20203;-81
2024/04/08 03:50:55;;;;;;;8.60;6.10;;;;;;;8.91;72.53;97120.69;5098555;28;20279;-80
2024/04/08 03:53:22;;;;;;;5.90;4.63;;;;;;;8.88;73.30;97122.00;5104352;28;20229;-81
2024/04/08 03:55:48;;;;;;;5.03;3.47;;;;;;;9.02;73.30;97130.22;5090852;28;20566;-81
2024/04/08 03:58:16;;;;;;;4.73;3.80;;;;;;;9.09;73.06;97112.19;5104151;28;20198;-81
2024/04/08 04:00:42;;;;;;;4.77;4.30;;;;;;;9.17;72.45;97124.16;5094628;28;20220;-81
2024/04/08 04:03:09;;;;;;;9.17;5.67;;;;;;;8.81;72.55;97094.88;5090789;28;20199;-80
2024/04/08 04:05:34;;;;;;;7.70;5.73;;;;;;;8.92;73.36;97131.03;5103794;28;20200;-80
2024/04/08 04:08:01;;;;;;;4.10;3.70;;;;;;;9.10;73.06;97123.63;5095525;28;20192;-81
2024/04/08 04:10:27;;;;;;;5.97;3.83;;;;;;;9.05;73.33;97127.06;5102760;28;20244;-81
2024/04/08 04:12:54;;;;;;;3.13;2.73;;;;;;;9.12;73.05;97122.31;5113265;28;20678;-81
2024/04/08 04:15:21;;;;;;;3.43;3.13;;;;;;;9.26;72.23;97115.44;5114036;28;20192;-81
2024/04/08 04:17:48;;;;;;;4.60;3.10;;;;;;;9.32;71.74;97121.53;5111396;28;20737;-82
2024/04/08 04:20:15;;;;;;;4.90;3.33;;;;;;;9.32;71.86;97126.84;5114322;28;20216;-81
2024/04/08 04:22:44;;;;;;;7.77;5.47;;;;;;;9.31;71.78;97127.91;5115078;28;20200;-81
2024/04/08 04:25:10;;;;;;;7.40;6.63;;;;;;;9.24;72.13;97122.84;5114358;28;20654;-81
2024/04/08 04:27:37;;;;;;;9.00;6.80;;;;;;;9.22;72.45;97126.84;5114640;28;20225;-81
2024/04/08 04:30:03;;;;;;;4.97;4.20;;;;;;;9.06;73.37;97126.03;5111700;28;20192;-81
2024/04/08 04:32:31;;;;;;;5.87;4.30;;;;;;;8.89;73.74;97109.50;5107094;28;20551;-80
2024/04/08 04:34:57;;;;;;;3.50;3.20;;;;;;;8.99;73.46;97128.94;5114302;28;20256;-81
2024/04/08 04:37:24;;;;;;;3.63;3.33;;;;;;;8.98;73.91;97137.13;5114776;28;20195;-80
2024/04/08 04:39:49;;;;;;;2.93;2.70;;;;;;;8.67;73.57;97065.38;5114995;28;20222;-79
2024/04/08 04:42:16;;;;;;;3.43;2.53;;;;;;;9.12;74.04;97134.78;5105403;28;20245;-81
2024/04/08 04:44:42;;;;;;;2.93;2.70;;;;;;;9.12;74.37;97134.78;5111377;28;20223;-81
2024/04/08 04:47:10;;;;;;;2.97;2.77;;;;;;;9.13;73.22;97120.44;5106031;28;20277;-81
2024/04/08 04:49:37;;;;;;;3.20;2.93;;;;;;;9.26;73.84;97144.66;5094555;28;20552;-81
2024/04/08 04:52:04;;;;;;;3.40;3.17;;;;;;;9.38;73.63;97144.41;5093955;28;20203;-81
2024/04/08 04:54:30;;;;;;;3.40;3.10;;;;;;;9.51;73.88;97141.19;5093249;28;20591;-81
2024/04/08 04:56:57;;;;;;;3.20;2.80;;;;;;;9.61;73.58;97139.63;5094784;28;20196;-80
2024/04/08 04:59:22;;;;;;;3.50;3.20;;;;;;;9.50;73.60;97138.81;5094485;28;20699;-80
2024/04/08 05:01:49;;;;;;;3.83;3.23;;;;;;;9.50;73.57;97125.53;5092556;28;20277;-81
2024/04/08 05:04:15;;;;;;;5.30;3.50;;;;;;;9.48;73.45;97133.75;5096928;28;20196;-81
2024/04/08 05:06:43;;;;;;;2.93;2.73;;;;;;;9.41;73.45;97149.19;5092941;28;20200;-80
2024/04/08 05:09:09;;;;;;;3.40;2.80;;;;;;;9.41;73.79;97146.53;5107787;28;20207;-81
2024/04/08 05:11:39;;;;;;;3.20;2.90;;;;;;;9.16;74.20;97126.03;5113009;28;20199;-80
2024/04/08 05:14:04;;;;;;;3.73;3.23;;;;;;;9.49;74.05;97161.16;5099583;28;20573;-81
2024/04/08 05:16:31;;;;;;;3.57;3.20;;;;;;;9.42;74.61;97148.13;5103831;28;20196;-81
2024/04/08 05:18:57;;;;;;;3.33;3.03;;;;;;;9.41;75.04;97146.53;5093765;28;20307;-81
2024/04/08 05:21:24;;;;;;;4.60;3.63;;;;;;;9.59;74.56;97155.03;5092999;28;20192;-81
2024/04/08 05:23:51;;;;;;;3.87;3.57;;;;;;;9.67;74.37;97152.63;5095369;28;20266;-81
2024/04/08 05:26:18;;;;;;;3.30;3.00;;;;;;;9.69;74.16;97157.69;5104531;28;20655;-81
2024/04/08 05:28:44;;;;;;;3.10;2.90;;;;;;;9.68;73.94;97156.09;5095864;28;20197;-81
2024/04/08 05:31:10;;;;;;;2.80;2.60;;;;;;;9.85;73.38;97158.50;5113680;28;20566;-81
2024/04/08 05:33:36;;;;;;;4.13;3.10;;;;;;;9.95;73.31;97150.50;5113153;28;20235;-80
2024/04/08 05:36:03;;;;;;;3.83;2.83;;;;;;;10.04;73.10;97157.66;5103582;28;20200;-80
2024/04/08 05:38:29;;;;;;;4.07;3.20;;;;;;;10.23;72.36;97157.13;5106695;28;20226;-81
2024/04/08 05:41:01;;;;;;;7.10;3.07;;;;;;;10.32;72.20;97155.53;5093175;28;20702;-81
2024/04/08 05:43:27;;;;;;;3.83;3.03;;;;;;;10.54;72.21;97155.19;5096765;28;20199;-80
2024/04/08 05:45:54;;;;;;;4.27;2.80;;;;;;;10.93;71.50;97154.50;5102677;28;20212;-80
2024/04/08 05:48:20;;;;;;;5.70;3.83;;;;;;;11.23;70.85;97159.69;5106555;28;20193;-80
2024/04/08 05:50:47;;;;;;;2.47;2.27;;;;;;;11.42;70.04;97159.00;5103131;28;20206;-80
2024/04/08 05:53:13;;;;;;;2.93;2.73;;;;;;;11.54;69.84;97148.81;5099459;28;20219;-80
2024/04/08 05:55:40;;;;;;;2.47;2.23;;;;;;;11.70;69.18;97157.50;5102542;28;20231;-80
2024/04/08 05:58:08;;;;;;;2.90;2.60;;;;;;;11.91;69.10;97161.59;5092556;28;20214;-80
2024/04/08 06:00:36;;;;;;;2.73;1.87;;;;;;;12.05;68.25;97155.63;5092501;28;20232;-80
2024/04/08 06:03:02;;;;;;;1.73;1.63;;;;;;;12.23;67.24;97166.41;5097235;28;20191;-80
2024/04/08 06:05:29;;;;;;;1.60;1.50;;;;;;;12.49;67.49;97158.91;5100764;28;20215;-80
2024/04/08 06:07:55;;;;;;;1.70;1.50;;;;;;;12.35;65.42;97162.50;5092410;28;20612;-80
2024/04/08 06:10:26;;;;;;;1.80;1.70;;;;;;;12.44;64.29;97166.97;5091973;28;20196;-80
2024/04/08 06:12:51;;;;;;;2.50;1.40;;;;;;;12.54;63.26;97166.03;5092716;28;20224;-80
2024/04/08 06:15:19;;;;;;;2.43;2.00;;;;;;;12.69;63.13;97163.22;5103889;28;20681;-79
2024/04/08 06:17:45;;;;;;;1.30;1.20;;;;;;;12.76;62.29;97144.16;5112269;28;20202;-79
2024/04/08 06:20:12;;;;;;;1.93;1.30;;;;;;;13.06;60.15;97166.25;5112151;28;20218;-79
2024/04/08 06:22:38;;;;;;;1.57;1.47;;;;;;;13.18;61.27;97169.28;5093597;28;20667;-79
2024/04/08 06:25:09;;;;;;;1.83;1.57;;;;;;;13.32;60.82;97175.56;5091908;28;20207;-79
2024/04/08 06:27:38;;;;;;;1.33;1.23;;;;;;;13.54;58.48;97174.16;5092009;28;20197;-79
2024/04/08 06:30:05;;;;;;;1.60;1.50;;;;;;;13.66;56.78;97169.94;5104684;28;20223;-79
2024/04/08 06:32:33;;;;;;;2.50;1.50;;;;;;;13.93;56.83;97171.13;5098842;28;20263;-79
2024/04/08 06:34:59;;;;;;;2.10;1.30;;;;;;;14.10;56.19;97168.72;5098529;28;20193;-79
2024/04/08 06:37:25;;;;;;;2.27;1.20;;;;;;;14.20;55.44;97176.56;5091968;28;20192;-79
2024/04/08 06:39:51;;;;;;;1.27;1.17;;;;;;;14.19;55.29;97142.06;5105169;28;20238;-80
2024/04/08 06:42:19;;;;;;;1.20;1.10;;;;;;;14.85;54.06;97182.91;5092301;28;20662;-79
2024/04/08 06:44:48;;;;;;;1.07;1.07;;;;;;;14.96;53.00;97189.66;5091502;28;20192;-80
2024/04/08 06:47:15;;;;;;;1.43;1.33;;;;;;;15.15;52.82;97186.84;5091757;28;20188;-79
2024/04/08 06:49:44;;;;;;;1.07;1.00;;;;;;;15.45;51.64;97187.25;5092315;28;20205;-79
2024/04/08 06:52:10;;;;;;;4.40;1.30;;;;;;;15.54;49.26;97180.09;5104384;28;20188;-79
2024/04/08 06:54:36;;;;;;;1.30;1.20;;;;;;;15.64;49.75;97182.53;5092136;28;20197;-79
2024/04/08 06:57:04;;;;;;;1.33;1.20;;;;;;;15.89;49.43;97183.88;5104228;28;20294;-79
2024/04/08 06:59:29;;;;;;;1.00;1.00;;;;;;;15.79;49.02;97158.03;5092076;28;20213;-79
2024/04/08 07:01:57;;;;;;;1.07;1.07;;;;;;;16.06;48.09;97167.84;5063701;28;20213;-79
2024/04/08 07:04:23;;;;;;;1.00;1.00;;;;;;;16.39;48.60;97178.31;5051023;28;20289;-79
2024/04/08 07:08:28;;;;;;;1.77;1.00;;;;;;;16.95;43.76;97184.88;5560979;25;1236490;-80
2024/04/08 07:10:54;;;;;;;1.10;1.00;;;;;;;17.38;44.15;97180.69;5545085;25;20616;-79
2024/04/08 07:13:22;;;;;;;2.43;1.30;;;;;;;16.57;43.96;97160.34;5563590;25;20231;-79
2024/04/08 07:15:53;;;;;;;1.13;1.03;;;;;;;17.17;43.89;97186.69;5578244;25;20235;-79
2024/04/08 07:18:21;;;;;;;1.10;1.10;;;;;;;16.99;44.10;97161.63;5547619;25;20294;-79
2024/04/08 07:20:47;;;;;;;2.10;1.13;;;;;;;17.34;42.62;97177.81;5544894;25;20631;-79
2024/04/08 07:23:15;;;;;;;1.17;1.03;;;;;;;17.37;41.55;97169.13;5547619;25;20238;-79
2024/04/08 07:25:44;;;;;;;0.87;0.87;;;;;;;17.58;42.25;97169.31;5544556;25;20231;-79
2024/04/08 07:28:12;;;;;;;2.77;1.30;;;;;;;18.07;41.43;97170.69;5547239;25;20325;-79
2024/04/08 07:30:38;;;;;;;2.70;1.20;;;;;;;18.63;39.46;97173.41;5544612;25;20278;-79
2024/04/08 07:33:07;;;;;;;1.13;1.10;;;;;;;18.79;37.09;97171.00;5546910;25;20231;-79
2024/04/08 07:35:36;;;;;;;1.23;1.10;;;;;;;18.62;38.01;97171.03;5544536;25;20235;-79
2024/04/08 07:38:05;;;;;;;1.20;1.20;;;;;;;18.82;37.73;97183.84;5569103;25;20634;-79
2024/04/08 07:40:31;;;;;;;1.10;1.00;;;;;;;19.20;37.11;97174.88;5581209;25;20752;-79
2024/04/08 07:43:02;;;;;;;0.90;0.90;;;;;;;18.71;36.64;97166.44;5584016;25;20274;-79
2024/04/08 07:45:28;;;;;;;1.30;1.20;;;;;;;18.56;36.41;97173.91;5556389;25;20559;-79
2024/04/08 07:47:56;;;;;;;1.10;1.00;;;;;;;18.49;37.12;97167.44;5584533;25;20314;-79
2024/04/08 07:50:22;;;;;;;1.30;1.07;;;;;;;18.55;37.63;97125.72;5581717;25;20775;-79
2024/04/08 07:52:50;;;;;;;1.10;0.83;;;;;;;19.23;35.94;97153.41;5559740;25;20591;-79
2024/04/08 07:55:16;;;;;;;3.50;1.30;;;;;;;19.89;35.32;97173.59;5581242;25;20234;-79
2024/04/08 07:57:45;;;;;;;1.00;1.00;;;;;;;18.71;35.41;97167.22;5584524;25;20277;-79
2024/04/08 08:00:14;;;;;;;0.80;0.80;;;;;;;18.43;37.46;97168.72;5544197;25;20687;-79
2024/04/08 08:02:44;;;;;;;1.13;1.10;;;;;;;19.22;36.16;97178.06;5571605;25;20226;-79
2024/04/08 08:05:10;;;;;;;1.13;1.03;;;;;;;19.20;35.75;97180.28;5544518;25;20722;-79
2024/04/08 08:07:38;;;;;;;2.07;1.17;;;;;;;18.43;36.66;97166.00;5546790;25;20278;-79
2024/04/08 08:10:08;;;;;;;1.00;0.93;;;;;;;17.61;36.81;97166.75;5559248;25;20246;-79
2024/04/08 08:12:36;;;;;;;0.90;0.87;;;;;;;18.45;34.58;97175.38;5580898;25;20230;-79
2024/04/08 08:15:02;;;;;;;1.20;1.10;;;;;;;17.76;36.70;97178.97;5581234;25;20341;-79
2024/04/08 08:17:33;;;;;;;1.33;1.00;;;;;;;17.41;36.52;97145.06;5578424;25;20230;-79
2024/04/08 08:20:04;;;;;;;0.87;0.87;;;;;;;16.96;37.49;97150.69;5527538;25;20621;-80
2024/04/08 08:22:33;;;;;;;1.37;1.00;;;;;;;18.36;36.10;97166.53;5552690;25;20232;-80
2024/04/08 08:25:02;;;;;;;0.60;0.60;;;;;;;18.19;35.73;97161.97;5527860;25;20738;-80
2024/04/08 08:27:31;;;;;;;0.80;0.80;;;;;;;17.81;37.79;97176.16;5552561;25;20232;-79
2024/04/08 08:29:59;;;;;;;0.80;0.80;;;;;;;17.25;36.88;97166.28;5527953;25;20235;-79
2024/04/08 08:32:28;;;;;;;0.80;0.80;;;;;;;17.27;37.36;97181.00;5561740;25;20310;-79
2024/04/08 08:34:56;;;;;;;0.90;0.90;;;;;;;17.10;37.29;97173.69;5565564;25;20227;-79
2024/04/08 08:37:25;;;;;;;2.63;0.97;;;;;;;17.04;37.46;97176.84;5542280;25;20302;-79
2024/04/08 08:39:50;;;;;;;0.80;0.80;;;;;;;17.27;38.38;97180.22;5564498;25;20230;-79
2024/04/08 08:42:22;;;;;;;1.40;0.67;;;;;;;17.15;37.35;97148.53;5567161;25;20277;-79
2024/04/08 08:44:50;;;;;;;1.93;1.03;;;;;;;17.56;37.44;97169.63;5539767;25;20223;-79
2024/04/08 08:47:19;;;;;;;1.20;1.10;;;;;;;18.28;34.86;97176.22;5567501;25;20230;-79
2024/04/08 08:49:46;;;;;;;2.70;1.57;;;;;;;17.83;35.01;97173.13;5563907;25;20280;-79
2024/04/08 08:52:18;;;;;;;1.13;1.03;;;;;;;18.61;34.88;97169.44;5552429;25;20718;-79
2024/04/08 08:54:43;;;;;;;1.17;1.10;;;;;;;19.20;33.92;97170.25;5552629;25;20294;-79
2024/04/08 08:57:13;;;;;;;1.47;1.13;;;;;;;18.96;33.55;97175.50;5546084;25;20337;-79
2024/04/08 08:59:40;;;;;;;1.27;1.10;;;;;;;18.66;32.53;97164.66;5539192;25;20236;-79
2024/04/08 09:02:14;;;;;;;0.80;0.80;;;;;;;18.62;34.27;97176.41;5549678;25;20235;-80
2024/04/08 09:04:40;;;;;;;1.97;1.40;;;;;;;18.55;33.82;97171.53;5551909;25;20231;-79
2024/04/08 09:07:10;;;;;;;4.60;3.70;;;;;;;18.27;35.17;97173.81;5549877;25;20767;-79
2024/04/08 09:09:38;;;;;;;2.63;2.43;;;;;;;19.92;33.81;97181.81;5530605;25;20235;-80
2024/04/08 09:12:12;;;;;;;2.70;1.37;;;;;;;20.64;29.68;97166.16;5529932;25;20578;-79
2024/04/08 09:14:37;;;;;;;2.60;1.43;;;;;;;21.73;27.36;97171.78;5551954;25;20342;-79
2024/04/08 09:17:07;;;;;;;0.63;0.63;;;;;;;21.18;26.21;97152.38;5553360;25;20234;-79
2024/04/08 09:19:34;;;;;;;1.80;0.63;;;;;;;21.67;26.92;97165.81;5552273;25;20282;-79
2024/04/08 09:22:03;;;;;;;2.93;1.00;;;;;;;21.79;27.67;97158.75;5529853;25;20344;-80
2024/04/08 09:24:30;;;;;;;1.00;0.90;;;;;;;21.56;27.26;97142.25;5539408;25;20651;-79
2024/04/08 09:27:01;;;;;;;0.90;0.90;;;;;;;21.11;27.67;97162.97;5541529;25;20277;-79
2024/04/08 09:29:27;;;;;;;3.83;3.40;;;;;;;21.37;27.21;97108.44;5527451;25;20278;-79
2024/04/08 09:31:56;;;;;;;1.63;1.47;;;;;;;22.66;25.89;97157.97;5529295;25;20342;-79
2024/04/08 09:34:24;;;;;;;1.23;1.13;;;;;;;21.97;24.45;97132.94;5526615;25;20232;-79
2024/04/08 09:36:54;;;;;;;0.90;0.90;;;;;;;21.46;26.08;97147.03;5557851;25;20622;-79
2024/04/08 09:39:22;;;;;;;0.60;0.60;;;;;;;20.92;26.29;97141.91;5547034;25;20792;-79
2024/04/08 09:41:51;;;;;;;1.00;0.90;;;;;;;22.19;26.18;97145.97;5553682;25;20234;-79
2024/04/08 09:44:20;;;;;;;0.80;0.80;;;;;;;22.90;25.49;97140.69;5544454;25;20274;-79
2024/04/08 09:46:51;;;;;;;0.70;0.70;;;;;;;21.41;25.66;97132.94;5540943;25;20273;-79
2024/04/08 09:49:18;;;;;;;0.70;0.70;;;;;;;21.21;27.17;97113.75;5544834;25;20381;-79
2024/04/08 09:51:50;;;;;;;0.70;0.70;;;;;;;21.69;27.38;97149.22;5528959;25;20228;-79
2024/04/08 09:54:16;;;;;;;1.07;1.00;;;;;;;20.26;27.85;97133.97;5526751;25;20236;-79
2024/04/08 09:56:47;;;;;;;1.60;1.17;;;;;;;19.75;29.73;97133.38;5537600;25;20325;-79
2024/04/08 09:59:20;;;;;;;1.30;1.20;;;;;;;19.65;31.54;97134.56;5563042;25;20234;-79
2024/04/08 10:01:53;;;;;;;1.13;1.00;;;;;;;19.58;30.73;97134.25;5563209;25;20235;-79
2024/04/08 10:04:23;;;;;;;1.37;1.20;;;;;;;20.65;30.88;97131.78;5539789;25;20270;-79
2024/04/08 10:06:49;;;;;;;1.10;1.10;;;;;;;19.55;33.01;97137.63;5541684;25;20269;-79
2024/04/08 10:09:20;;;;;;;0.90;0.90;;;;;;;19.01;33.16;97121.34;5537885;25;20247;-79
2024/04/08 10:11:49;;;;;;;1.53;1.33;;;;;;;19.46;32.15;97128.81;5526552;25;20224;-79
2024/04/08 10:14:18;;;;;;;1.10;1.00;;;;;;;20.15;30.25;97130.88;5553210;25;20274;-79
2024/04/08 10:16:44;;;;;;;1.43;1.17;;;;;;;21.15;30.05;97117.84;5545547;25;20223;-79
2024/04/08 10:19:16;;;;;;;5.67;5.10;;;;;;;21.09;29.89;97121.13;5541122;25;20222;-79
2024/04/08 10:21:42;;;;;;;1.23;1.13;;;;;;;21.04;27.81;97092.38;5563373;25;20332;-79
2024/04/08 10:24:30;;;;;;;0.90;0.90;;;;;;;19.85;28.48;97070.81;5540924;25;20729;-79
2024/04/08 10:27:04;;;;;;;0.90;0.90;;;;;;;20.55;28.46;97053.78;5536315;25;20236;-79
2024/04/08 10:29:35;;;;;;;1.70;1.07;;;;;;;21.54;29.74;97109.31;5545119;25;20246;-79
2024/04/08 10:32:04;;;;;;;0.90;0.90;;;;;;;21.39;28.08;97079.13;5558078;25;20342;-79
2024/04/08 10:34:36;;;;;;;2.30;1.40;;;;;;;22.19;29.25;97108.00;5546373;25;20281;-79
2024/04/08 10:37:02;;;;;;;1.83;1.30;;;;;;;22.53;26.57;97099.50;5556212;25;20236;-79
2024/04/08 10:39:31;;;;;;;0.80;0.80;;;;;;;22.43;25.55;97088.06;5547826;25;20319;-79
2024/04/08 10:41:57;;;;;;;1.40;1.30;;;;;;;21.94;28.39;97098.41;5554291;25;20232;-79
2024/04/08 10:44:27;;;;;;;1.23;1.13;;;;;;;21.24;29.74;97096.84;5549488;25;20580;-79
2024/04/08 10:46:54;;;;;;;3.63;1.90;;;;;;;20.50;30.10;97079.91;5562424;25;20840;-79
2024/04/08 10:49:22;;;;;;;1.47;1.37;;;;;;;21.96;30.50;97094.22;5565603;25;20337;-79
2024/04/08 10:51:51;;;;;;;3.60;1.50;;;;;;;21.43;30.10;97066.47;5537287;25;20734;-79
2024/04/08 10:54:20;;;;;;;1.43;1.00;;;;;;;21.40;30.63;97066.34;5565395;25;20311;-79
2024/04/08 10:56:47;;;;;;;2.63;2.43;;;;;;;20.98;28.79;97077.50;5537643;25;20705;-79
2024/04/08 10:59:16;;;;;;;2.33;1.13;;;;;;;20.72;28.26;97056.25;5565364;25;20649;-79
2024/04/08 11:01:42;;;;;;;3.07;1.80;;;;;;;21.62;29.22;97073.16;5562243;25;20280;-79
2024/04/08 11:04:10;;;;;;;1.30;1.20;;;;;;;22.15;27.66;97063.75;5565184;25;20226;-80
2024/04/08 11:06:36;;;;;;;3.07;2.00;;;;;;;22.23;26.80;97069.34;5537959;25;20235;-79
2024/04/08 11:09:09;;;;;;;1.03;1.03;;;;;;;22.66;24.90;97073.84;5565196;25;20333;-79
2024/04/08 11:11:35;;;;;;;1.80;1.07;;;;;;;22.48;23.03;97073.44;5549030;25;20239;-79
2024/04/08 11:14:05;;;;;;;1.07;0.97;;;;;;;22.72;24.04;97058.84;5552487;25;20240;-80
2024/04/08 11:16:30;;;;;;;1.10;1.00;;;;;;;21.65;27.87;97056.22;5540381;25;20234;-79
2024/04/08 11:18:59;;;;;;;1.17;1.10;;;;;;;21.73;28.55;97045.22;5537700;25;20625;-79
2024/04/08 11:21:26;;;;;;;1.00;1.00;;;;;;;21.47;28.62;97044.91;5540969;25;20579;-79
2024/04/08 11:23:55;;;;;;;1.20;1.10;;;;;;;22.42;29.29;97053.16;5563785;25;20609;-79
2024/04/08 11:26:30;;;;;;;1.33;1.23;;;;;;;22.48;26.96;97046.31;5561821;25;20268;-79
2024/04/08 11:28:59;;;;;;;1.63;1.20;;;;;;;22.08;27.60;97036.41;5562150;25;20411;-79
2024/04/08 11:31:27;;;;;;;1.17;1.03;;;;;;;21.38;28.74;97030.72;5545118;25;20275;-79
2024/04/08 11:33:53;;;;;;;1.13;0.90;;;;;;;21.12;29.18;97002.13;5557038;25;20226;-79
2024/04/08 11:36:22;;;;;;;1.33;1.23;;;;;;;21.26;29.05;97036.94;5544834;25;20278;-79
2024/04/08 11:38:47;;;;;;;2.93;1.00;;;;;;;21.11;28.75;96976.19;5532547;25;20581;-79